• Join FlightAware (Why Join?)
  • Login
  • US Flag 
03:12PM EDT


 

Airport Tracker/Info


-or-


 

Live Flight TrackerFlight Track Log ✈ JTA564 ✈ 30-Sep-2013 ✈ ROMY / MMY - ROAH / OKA

Flight Track Log - Related Links

Times and Time Zones

All times are in EDT time to prevent confusion due to time zone crossing. See the JTA564 flight status page for this flight to view local times or setup timezone preferences in your user account.

Time Position Orientation Groundspeed Altitude Reporting Facility
EDT Latitude Longitude Course Direction KTS MPH feet Rate Location/Type
03:16AM 24.9475 125.5631 56° Northeast  Level Estimated
03:17AM 25.0022 125.6525 56° Northeast  Level Estimated
03:18AM 25.0569 125.7421 56° Northeast  Level Estimated
03:19AM 25.1116 125.8317 56° Northeast  Level Estimated
03:20AM 25.1662 125.9214 56° Northeast  Level Estimated
03:21AM 25.2208 126.0112 56° Northeast  Level Estimated
03:22AM 25.2753 126.1011 56° Northeast  Level Estimated
03:23AM 25.3297 126.1910 56° Northeast  Level Estimated
03:24AM 25.3841 126.2811 56° Northeast  Level Estimated
03:25AM 25.4384 126.3712 56° Northeast  Level Estimated
03:26AM 25.4927 126.4614 56° Northeast  Level Estimated
03:27AM 25.5469 126.5517 56° Northeast  Level Estimated
03:28AM 25.6011 126.6421 56° Northeast  Level Estimated
03:29AM 25.6552 126.7325 56° Northeast  Level Estimated
03:30AM 25.7093 126.8230 56° Northeast  Level Estimated
03:31AM 25.7633 126.9136 56° Northeast  Level Estimated
03:32AM 25.8172 127.0043 57° Northeast  Level Estimated
03:33AM 25.8711 127.0951 57° Northeast  Level Estimated
03:34AM 25.9249 127.1860 57° Northeast  Level Estimated
03:35AM 25.9787 127.2769 57° Northeast  Level Estimated
03:36AM 26.0324 127.3679 57° Northeast  Level Estimated
03:37AM 26.0861 127.4590 57° Northeast  Level Estimated
03:38AM 26.1397 127.5502 57° Northeast  Level Estimated
03:39AM 26.1958 127.6459 57° Northeast  Level Estimated
03:40AM 26.1958 127.6459 347° North  Level Estimated
03:41AM 26.1958 127.6459 347° North  Level Estimated
03:42AM 26.1958 127.6459 347° North  Level Estimated
03:43AM 26.1958 127.6459 347° North  Level Estimated